Time;durP1;ratioP1;P1;durP2;ratioP2;P2;SDS_P1;SDS_P2;PMS_P1;PMS_P2;Temp;Humidity;BMP_temperature;BMP_pressure;BME280_temperature;BME280_humidity;BME280_pressure;Samples;Min_cycle;Max_cycle;Signal;HPM_P1;HPM_P2
2021/10/22 00:00:31;;;;;;;;;;;;;;;13.62;75.37;101161.00;4973997;28;19929;-58
2021/10/22 00:02:58;;;;;;;;;;;;;;;13.61;75.38;101167.22;4974663;28;19926;-59
2021/10/22 00:05:25;;;;;;;;;;;;;;;13.62;75.36;101161.00;4974456;28;19933;-60
2021/10/22 00:07:51;;;;;;;;;;;;;;;13.59;75.41;101162.06;4974461;28;19977;-58
2021/10/22 00:10:18;;;;;;;;;;;;;;;13.58;75.26;101170.91;4974620;28;19981;-58
2021/10/22 00:12:44;;;;;;;;;;;;;;;13.58;75.09;101168.28;4974402;28;19945;-58
2021/10/22 00:15:11;;;;;;;;;;;;;;;13.57;75.12;101176.28;4963946;28;19926;-58
2021/10/22 00:17:38;;;;;;;;;;;;;;;13.57;75.02;101174.47;4974440;28;19930;-58
2021/10/22 00:20:06;;;;;;;;;;;;;;;13.55;75.19;101179.84;4974120;28;19950;-59
2021/10/22 00:22:33;;;;;;;;;;;;;;;13.55;75.05;101174.59;4974382;28;19926;-60
2021/10/22 00:24:59;;;;;;;;;;;;;;;13.52;75.08;101171.28;4963146;28;19931;-59
2021/10/22 00:27:26;;;;;;;;;;;;;;;13.50;75.05;101171.38;4954509;28;19954;-59
2021/10/22 00:29:52;;;;;;;;;;;;;;;13.50;74.82;101168.75;4964252;28;19988;-59
2021/10/22 00:32:19;;;;;;;;;;;;;;;13.46;74.84;101166.38;4967498;28;19930;-58
2021/10/22 00:34:45;;;;;;;;;;;;;;;13.44;74.81;101168.28;4974187;28;19974;-59
2021/10/22 00:37:12;;;;;;;;;;;;;;;13.39;75.06;101166.78;4973976;28;19930;-58
2021/10/22 00:39:38;;;;;;;;;;;;;;;13.37;74.93;101165.19;4974067;28;19997;-59
2021/10/22 00:42:07;;;;;;;;;;;;;;;13.34;74.76;101163.53;4974009;28;19965;-58
2021/10/22 00:44:34;;;;;;;;;;;;;;;13.32;74.75;101159.31;4974027;28;20029;-58
2021/10/22 00:47:00;;;;;;;;;;;;;;;13.28;74.70;101163.94;4974007;28;20337;-59
2021/10/22 00:49:27;;;;;;;;;;;;;;;13.22;75.14;101161.69;4972121;28;19934;-58
2021/10/22 00:51:54;;;;;;;;;;;;;;;13.20;74.86;101167.03;4973961;28;19926;-61
2021/10/22 00:54:20;;;;;;;;;;;;;;;13.19;74.86;101170.63;4973660;28;19981;-59
2021/10/22 00:56:50;;;;;;;;;;;;;;;13.11;74.83;101180.75;4973571;28;19989;-58
2021/10/22 00:59:16;;;;;;;;;;;;;;;13.08;74.63;101178.31;4973693;28;19953;-59
2021/10/22 01:01:43;;;;;;;;;;;;;;;13.10;74.55;101178.22;4973733;28;19926;-58
2021/10/22 01:04:10;;;;;;;;;;;;;;;13.08;74.39;101178.31;4973868;28;20002;-59
2021/10/22 01:06:37;;;;;;;;;;;;;;;13.01;74.75;101177.81;4972522;28;19981;-60
2021/10/22 01:09:06;;;;;;;;;;;;;;;13.04;74.34;101182.09;4973481;28;19931;-58
2021/10/22 01:11:33;;;;;;;;;;;;;;;13.01;74.49;101179.63;4973267;28;20004;-58
2021/10/22 01:14:01;;;;;;;;;;;;;;;12.98;74.20;101183.28;4973327;28;19926;-60
2021/10/22 01:16:28;;;;;;;;;;;;;;;12.90;74.74;101183.75;4973340;28;19930;-58
2021/10/22 01:18:55;;;;;;;;;;;;;;;12.89;74.61;101182.03;4973337;28;19968;-58
2021/10/22 01:21:21;;;;;;;;;;;;;;;12.91;74.25;101176.69;4973558;28;19930;-58
2021/10/22 01:23:48;;;;;;;;;;;;;;;12.90;74.47;101173.22;4965309;28;20334;-59
2021/10/22 01:26:17;;;;;;;;;;;;;;;12.92;74.34;101172.28;4953973;28;19962;-59
2021/10/22 01:28:43;;;;;;;;;;;;;;;12.92;74.09;101169.66;4954294;28;19934;-59
2021/10/22 01:31:10;;;;;;;;;;;;;;;12.91;74.07;101171.41;4960175;28;19930;-59
2021/10/22 01:33:38;;;;;;;;;;;;;;;12.90;74.35;101167.94;4973621;28;19988;-60
2021/10/22 01:36:05;;;;;;;;;;;;;;;12.94;74.13;101168.63;4973384;28;19988;-58
2021/10/22 01:38:31;;;;;;;;;;;;;;;12.93;74.33;101164.28;4973267;28;19973;-58
2021/10/22 01:40:58;;;;;;;;;;;;;;;12.94;74.32;101158.06;4961301;28;19927;-58
2021/10/22 01:43:26;;;;;;;;;;;;;;;12.96;73.96;101158.81;4973408;28;19980;-58
2021/10/22 01:45:52;;;;;;;;;;;;;;;12.96;74.17;101161.44;4973262;28;19926;-58
2021/10/22 01:48:19;;;;;;;;;;;;;;;12.88;74.26;101158.44;4973260;28;19926;-59
2021/10/22 01:50:45;;;;;;;;;;;;;;;12.84;74.79;101159.56;4973344;28;19930;-58
2021/10/22 01:53:14;;;;;;;;;;;;;;;12.90;74.67;101162.69;4973158;28;19977;-58
2021/10/22 01:55:41;;;;;;;;;;;;;;;12.95;74.72;101174.72;4973349;28;19926;-59
2021/10/22 01:58:08;;;;;;;;;;;;;;;12.95;74.35;101170.31;4965078;28;19930;-59
2021/10/22 02:00:35;;;;;;;;;;;;;;;12.98;74.72;101171.91;4973523;28;19929;-58
2021/10/22 02:03:01;;;;;;;;;;;;;;;13.00;74.63;101170.03;4973279;28;20409;-60
2021/10/22 02:05:28;;;;;;;;;;;;;;;13.03;74.38;101178.59;4973382;28;20341;-59
2021/10/22 02:07:54;;;;;;;;;;;;;;;13.05;74.45;101183.75;4972894;28;19981;-59
2021/10/22 02:10:21;;;;;;;;;;;;;;;13.07;74.70;101187.16;4973075;28;19926;-58
2021/10/22 02:12:47;;;;;;;;;;;;;;;13.12;74.57;101185.09;4973111;28;19927;-59
2021/10/22 02:15:14;;;;;;;;;;;;;;;13.12;74.49;101185.09;4953179;28;19973;-58
2021/10/22 02:17:40;;;;;;;;;;;;;;;13.14;74.40;101191.13;4953968;28;19943;-59
2021/10/22 02:20:07;;;;;;;;;;;;;;;13.14;74.63;101187.63;4953458;28;19930;-59
2021/10/22 02:22:33;;;;;;;;;;;;;;;13.14;74.37;101188.50;4959971;28;19981;-58
2021/10/22 02:25:00;;;;;;;;;;;;;;;13.14;74.36;101190.25;4965417;28;20303;-60
2021/10/22 02:27:28;;;;;;;;;;;;;;;13.12;74.72;101187.72;4956585;28;19930;-60
2021/10/22 02:30:10;;;;;;;;;;;;;;;13.15;74.65;101199.88;4967665;28;19969;-59
2021/10/22 02:32:37;;;;;;;;;;;;;;;13.15;74.61;101202.50;4968314;28;19926;-58
2021/10/22 02:35:03;;;;;;;;;;;;;;;13.13;74.74;101197.34;4956777;28;19926;-58
2021/10/22 02:37:30;;;;;;;;;;;;;;;13.16;74.84;101191.03;4956695;28;19931;-58
2021/10/22 02:39:56;;;;;;;;;;;;;;;13.16;74.81;101191.03;4956805;28;19927;-59
2021/10/22 02:42:23;;;;;;;;;;;;;;;13.18;75.05;101192.63;4956510;28;19935;-58
2021/10/22 02:44:49;;;;;;;;;;;;;;;13.20;75.03;101197.81;4956904;28;19930;-58
2021/10/22 02:47:16;;;;;;;;;;;;;;;13.23;75.13;101195.00;4956349;28;19930;-58
2021/10/22 02:49:42;;;;;;;;;;;;;;;13.26;75.04;101204.50;4956492;28;19973;-59
2021/10/22 02:52:09;;;;;;;;;;;;;;;13.23;75.23;101201.09;4956504;28;19926;-60
2021/10/22 02:54:35;;;;;;;;;;;;;;;13.25;75.16;101200.19;4956690;28;19927;-58
2021/10/22 02:57:02;;;;;;;;;;;;;;;13.27;75.15;101208.81;4956331;28;19931;-59
2021/10/22 02:59:28;;;;;;;;;;;;;;;13.27;75.26;101208.81;4956398;28;19926;-59
2021/10/22 03:01:55;;;;;;;;;;;;;;;13.30;75.38;101206.00;4955282;28;19973;-58
2021/10/22 03:04:22;;;;;;;;;;;;;;;13.31;75.38;101208.53;4955671;28;19936;-58
2021/10/22 03:06:48;;;;;;;;;;;;;;;13.32;75.66;101201.47;4952993;28;19926;-58
2021/10/22 03:09:15;;;;;;;;;;;;;;;13.31;75.58;101202.44;4952883;28;19926;-58
2021/10/22 03:11:41;;;;;;;;;;;;;;;13.30;75.69;101200.75;4952988;28;19934;-58
2021/10/22 03:14:08;;;;;;;;;;;;;;;13.32;75.64;101198.84;4952513;28;19926;-58
2021/10/22 03:16:35;;;;;;;;;;;;;;;13.30;75.84;101201.56;4952997;28;19948;-58
2021/10/22 03:19:02;;;;;;;;;;;;;;;13.31;76.09;101189.25;4953087;28;19931;-61
2021/10/22 03:21:29;;;;;;;;;;;;;;;13.30;76.01;101191.03;4952992;28;19930;-60
2021/10/22 03:23:56;;;;;;;;;;;;;;;13.29;76.01;101193.78;4966178;28;19930;-59
2021/10/22 03:26:23;;;;;;;;;;;;;;;13.29;75.99;101206.94;4952613;28;19930;-58
2021/10/22 03:28:50;;;;;;;;;;;;;;;13.23;76.12;101209.00;4953626;28;20146;-58
2021/10/22 03:31:16;;;;;;;;;;;;;;;13.22;76.19;101207.31;4971838;28;20445;-59
2021/10/22 03:33:43;;;;;;;;;;;;;;;13.25;76.00;101210.72;4972077;28;19934;-58
2021/10/22 03:36:09;;;;;;;;;;;;;;;13.22;76.02;101214.38;4970875;28;19933;-58
2021/10/22 03:38:36;;;;;;;;;;;;;;;13.24;75.90;101215.13;4971649;28;20389;-59
2021/10/22 03:41:03;;;;;;;;;;;;;;;13.25;76.10;101216.81;4971777;28;20327;-59
2021/10/22 03:43:29;;;;;;;;;;;;;;;13.28;75.96;101221.06;4972160;28;20263;-60
2021/10/22 03:45:57;;;;;;;;;;;;;;;13.26;75.76;101228.22;4971843;28;19988;-58
2021/10/22 03:48:23;;;;;;;;;;;;;;;13.25;75.89;101224.72;4971475;28;19937;-58
2021/10/22 03:50:50;;;;;;;;;;;;;;;13.26;75.84;101233.50;4971438;28;19930;-58
2021/10/22 03:53:16;;;;;;;;;;;;;;;13.23;75.94;101240.63;4959566;28;19997;-59
2021/10/22 03:55:43;;;;;;;;;;;;;;;13.24;75.97;101230.94;4971503;28;19926;-57
2021/10/22 03:58:09;;;;;;;;;;;;;;;13.27;75.75;101229.91;4970785;28;19980;-59
2021/10/22 04:00:37;;;;;;;;;;;;;;;13.28;75.95;101226.31;4971542;28;20000;-58
2021/10/22 04:03:04;;;;;;;;;;;;;;;13.26;75.92;101230.88;4971304;28;19940;-58
2021/10/22 04:05:32;;;;;;;;;;;;;;;13.27;75.96;101238.66;4971756;28;20347;-59
2021/10/22 04:07:59;;;;;;;;;;;;;;;13.28;75.98;101235.09;4971256;28;20429;-59
2021/10/22 04:10:25;;;;;;;;;;;;;;;13.29;75.83;101239.41;4965211;28;20386;-58
2021/10/22 04:12:52;;;;;;;;;;;;;;;13.30;75.78;101237.63;4971262;28;19937;-59
2021/10/22 04:15:18;;;;;;;;;;;;;;;13.29;76.09;101242.03;4970614;28;19953;-58
2021/10/22 04:17:45;;;;;;;;;;;;;;;13.30;76.04;101243.75;4971070;28;20339;-58
2021/10/22 04:20:11;;;;;;;;;;;;;;;13.32;76.14;101243.66;4970687;28;19934;-58
2021/10/22 04:22:38;;;;;;;;;;;;;;;13.33;75.94;101246.22;4971051;28;19926;-58
2021/10/22 04:25:05;;;;;;;;;;;;;;;13.34;76.00;101250.53;4959514;28;20283;-58
2021/10/22 04:27:32;;;;;;;;;;;;;;;13.34;75.93;101250.53;4963492;28;20063;-58
2021/10/22 04:30:06;;;;;;;;;;;;;;;13.36;75.97;101240.75;4961763;28;19973;-58
2021/10/22 04:32:33;;;;;;;;;;;;;;;13.39;76.09;101239.75;4970614;28;20416;-59
2021/10/22 04:34:59;;;;;;;;;;;;;;;13.40;76.00;101238.81;4970917;28;20338;-58
2021/10/22 04:37:48;;;;;;;;;;;;;;;13.38;76.27;101240.69;4970849;28;19926;-58
2021/10/22 04:43:01;;;;;;;;;;;;;;;13.38;76.11;101241.53;4969231;28;20353;-58
2021/10/22 04:45:29;;;;;;;;;;;;;;;13.39;76.12;101239.75;4970791;28;19938;-59
2021/10/22 04:47:55;;;;;;;;;;;;;;;13.36;76.24;101239.91;4970580;28;19926;-58
2021/10/22 04:50:22;;;;;;;;;;;;;;;13.36;76.44;101235.47;4967966;28;19930;-58
2021/10/22 04:52:53;;;;;;;;;;;;;;;13.36;76.33;101235.47;4958795;28;19954;-59
2021/10/22 04:55:29;;;;;;;;;;;;;;;13.33;76.70;101240.06;4951142;28;19930;-58
2021/10/22 04:57:55;;;;;;;;;;;;;;;13.31;76.53;101247.25;4950756;28;19937;-59
2021/10/22 05:00:22;;;;;;;;;;;;;;;13.34;76.58;101239.16;4957075;28;19942;-60
2021/10/22 05:02:49;;;;;;;;;;;;;;;13.33;76.65;101235.66;4952275;28;20673;-61
2021/10/22 05:05:16;;;;;;;;;;;;;;;13.32;76.80;101230.47;4951124;28;19934;-61
2021/10/22 05:07:43;;;;;;;;;;;;;;;13.35;76.63;101222.41;4951282;28;19926;-60
2021/10/22 05:10:10;;;;;;;;;;;;;;;13.37;76.64;101225.81;4950805;28;19926;-59
2021/10/22 05:12:36;;;;;;;;;;;;;;;13.37;76.62;101229.28;4950974;28;19981;-59
2021/10/22 05:15:04;;;;;;;;;;;;;;;13.35;76.90;101230.28;4950477;28;20331;-59
2021/10/22 05:17:32;;;;;;;;;;;;;;;13.36;76.89;101229.38;4950696;28;19926;-60
2021/10/22 05:19:58;;;;;;;;;;;;;;;13.41;76.62;101227.31;4950748;28;20327;-60
2021/10/22 05:22:25;;;;;;;;;;;;;;;13.41;76.94;101229.09;4954855;28;20009;-59
2021/10/22 05:24:52;;;;;;;;;;;;;;;13.43;76.94;101227.22;4960235;28;19936;-59
2021/10/22 05:27:22;;;;;;;;;;;;;;;13.44;77.02;101223.66;4950360;28;19938;-60
2021/10/22 05:29:57;;;;;;;;;;;;;;;13.36;76.91;101214.38;4960224;28;20294;-60
2021/10/22 05:32:29;;;;;;;;;;;;;;;13.34;77.24;101221.53;4970256;28;19926;-60
2021/10/22 05:34:56;;;;;;;;;;;;;;;13.37;77.13;101221.38;4967844;28;19926;-60
2021/10/22 05:37:22;;;;;;;;;;;;;;;13.35;77.04;101227.66;4965199;28;19993;-60
2021/10/22 05:39:49;;;;;;;;;;;;;;;13.40;77.28;101230.91;4969936;28;20347;-60
2021/10/22 05:42:16;;;;;;;;;;;;;;;13.38;77.11;101231.00;4970061;28;19981;-60
2021/10/22 05:44:43;;;;;;;;;;;;;;;13.40;77.33;101230.91;4969857;28;19928;-59
2021/10/22 05:47:09;;;;;;;;;;;;;;;13.39;77.36;101240.59;4969831;28;19926;-59
2021/10/22 05:49:36;;;;;;;;;;;;;;;13.38;77.20;101238.03;4969616;28;19977;-59
2021/10/22 05:52:02;;;;;;;;;;;;;;;13.44;77.24;101252.66;4961964;28;19986;-61
2021/10/22 05:54:29;;;;;;;;;;;;;;;13.50;77.14;101255.75;4962490;28;19981;-59
2021/10/22 05:56:55;;;;;;;;;;;;;;;13.47;76.99;101247.19;4950077;28;19930;-61
2021/10/22 05:59:23;;;;;;;;;;;;;;;13.49;77.40;101247.94;4953518;28;19930;-59
2021/10/22 06:01:50;;;;;;;;;;;;;;;13.50;77.45;101247.00;4954066;28;19926;-59
2021/10/22 06:04:16;;;;;;;;;;;;;;;13.51;77.31;101246.03;4953978;28;19927;-60
2021/10/22 06:06:43;;;;;;;;;;;;;;;13.52;77.56;101259.16;4954255;28;19989;-60
2021/10/22 06:09:11;;;;;;;;;;;;;;;13.53;77.40;101258.22;4953519;28;19978;-61
2021/10/22 06:11:38;;;;;;;;;;;;;;;13.54;77.56;101259.06;4953873;28;19933;-60
2021/10/22 06:14:05;;;;;;;;;;;;;;;13.56;77.58;101262.47;4953897;28;19933;-59
2021/10/22 06:16:33;;;;;;;;;;;;;;;13.56;77.52;101267.75;4953995;28;19982;-59
2021/10/22 06:19:02;;;;;;;;;;;;;;;13.55;77.43;101271.31;4953904;28;19930;-60
2021/10/22 06:21:35;;;;;;;;;;;;;;;13.56;77.64;101273.00;4953969;28;19927;-59
2021/10/22 06:24:02;;;;;;;;;;;;;;;13.57;77.46;101277.31;4967731;28;19930;-60
2021/10/22 06:26:31;;;;;;;;;;;;;;;13.60;77.83;101282.44;4965776;28;20386;-58
2021/10/22 06:28:59;;;;;;;;;;;;;;;13.61;77.84;101278.84;4956996;28;19941;-60
2021/10/22 06:31:25;;;;;;;;;;;;;;;13.61;77.53;101281.50;4953485;28;19927;-59
2021/10/22 06:33:52;;;;;;;;;;;;;;;13.62;77.75;101284.97;4953497;28;19969;-59
2021/10/22 06:36:19;;;;;;;;;;;;;;;13.63;77.87;101289.31;4948018;28;19926;-60
2021/10/22 06:38:46;;;;;;;;;;;;;;;13.61;77.91;101284.13;4949429;28;20051;-61
2021/10/22 06:41:13;;;;;;;;;;;;;;;13.62;77.97;101287.59;4958178;28;19933;-59
2021/10/22 06:43:41;;;;;;;;;;;;;;;13.62;77.75;101295.50;4971218;28;19926;-59
2021/10/22 06:46:08;;;;;;;;;;;;;;;13.63;78.07;101298.03;4961193;28;19930;-59
2021/10/22 06:48:35;;;;;;;;;;;;;;;13.63;77.69;101294.56;4960754;28;20040;-61
2021/10/22 06:51:02;;;;;;;;;;;;;;;13.62;77.88;101298.97;4967525;28;19926;-58
2021/10/22 06:53:29;;;;;;;;;;;;;;;13.61;77.84;101305.22;4971173;28;20383;-58
2021/10/22 06:55:55;;;;;;;;;;;;;;;13.62;77.96;101308.69;4971321;28;19981;-60
2021/10/22 06:58:22;;;;;;;;;;;;;;;13.63;78.22;101313.03;4965350;28;19930;-59
2021/10/22 07:00:49;;;;;;;;;;;;;;;13.63;78.17;101313.03;4971754;28;19926;-61
2021/10/22 07:03:26;;;;;;;;;;;;;;;13.61;78.24;101318.41;4969065;28;20294;-61
2021/10/22 07:08:25;;;;;;;;;;;;;;;13.64;78.08;101320.84;4969653;28;19965;-61
2021/10/22 07:10:56;;;;;;;;;;;;;;;13.64;78.21;101323.47;4971494;28;19930;-59
2021/10/22 07:13:23;;;;;;;;;;;;;;;13.66;78.18;101324.25;4970354;28;19930;-60
2021/10/22 07:15:50;;;;;;;;;;;;;;;13.65;78.14;101326.97;4971564;28;19926;-60
2021/10/22 07:18:17;;;;;;;;;;;;;;;13.64;78.43;101323.47;4971007;28;19973;-59
2021/10/22 07:20:44;;;;;;;;;;;;;;;13.61;78.45;101331.59;4966055;28;19977;-60
2021/10/22 07:23:11;;;;;;;;;;;;;;;13.65;78.31;101334.88;4959906;28;20009;-60
2021/10/22 07:25:40;;;;;;;;;;;;;;;13.61;78.25;101344.78;4964364;28;20009;-60
2021/10/22 07:28:10;;;;;;;;;;;;;;;13.65;78.36;101350.69;4953303;28;19926;-59
2021/10/22 07:30:44;;;;;;;;;;;;;;;13.68;78.41;101354.00;4956977;28;20349;-60
2021/10/22 07:33:11;;;;;;;;;;;;;;;13.69;78.50;101353.06;4954588;28;19927;-59
2021/10/22 07:35:38;;;;;;;;;;;;;;;13.72;78.36;101354.66;4964628;28;19980;-61
2021/10/22 07:38:09;;;;;;;;;;;;;;;13.71;78.52;101356.47;4970695;28;19930;-60
2021/10/22 07:40:37;;;;;;;;;;;;;;;13.73;78.26;101356.38;4970593;28;20405;-60
2021/10/22 07:43:03;;;;;;;;;;;;;;;13.79;78.57;101363.06;4964460;28;19926;-59
2021/10/22 07:45:30;;;;;;;;;;;;;;;13.81;78.27;101366.47;4952420;28;20377;-60
2021/10/22 07:47:57;;;;;;;;;;;;;;;13.81;78.39;101372.56;4953125;28;19930;-60
2021/10/22 07:50:24;;;;;;;;;;;;;;;13.82;78.29;101368.16;4952902;28;19934;-59
2021/10/22 07:52:50;;;;;;;;;;;;;;;13.84;78.47;101369.75;4952677;28;19974;-60
2021/10/22 07:55:17;;;;;;;;;;;;;;;13.85;78.42;101373.22;4953012;28;19931;-59
2021/10/22 07:57:43;;;;;;;;;;;;;;;13.87;78.46;101376.63;4955748;28;19930;-59
2021/10/22 08:00:11;;;;;;;;;;;;;;;13.90;78.47;101388.81;4954321;28;19930;-59
2021/10/22 08:02:38;;;;;;;;;;;;;;;13.90;78.49;101397.56;4954896;28;19931;-59
2021/10/22 08:05:07;;;;;;;;;;;;;;;13.91;78.47;101403.69;4950692;28;19930;-60
2021/10/22 08:07:37;;;;;;;;;;;;;;;13.91;78.37;101398.41;4953614;28;19930;-59
2021/10/22 08:10:04;;;;;;;;;;;;;;;13.93;78.51;101405.28;4954526;28;19993;-60
2021/10/22 08:12:31;;;;;;;;;;;;;;;13.94;78.25;101400.84;4958440;28;19931;-59
2021/10/22 08:14:58;;;;;;;;;;;;;;;13.93;78.61;101404.44;4953509;28;20087;-60
2021/10/22 08:17:25;;;;;;;;;;;;;;;13.94;78.47;101403.50;4949278;28;19933;-60
2021/10/22 08:19:58;;;;;;;;;;;;;;;13.95;78.53;101415.75;4952514;28;19973;-59
2021/10/22 08:22:27;;;;;;;;;;;;;;;13.95;78.24;101408.66;4953020;28;19930;-62
2021/10/22 08:25:13;;;;;;;;;;;;;;;13.95;78.30;101411.31;4950758;28;20395;-61
2021/10/22 08:27:39;;;;;;;;;;;;;;;13.99;78.12;101409.34;4957590;28;19985;-59
2021/10/22 08:30:08;;;;;;;;;;;;;;;14.01;78.39;101399.56;4950213;28;19927;-59
2021/10/22 08:32:35;;;;;;;;;;;;;;;14.05;78.16;101403.69;4950751;28;20304;-60
2021/10/22 08:35:02;;;;;;;;;;;;;;;14.11;78.10;101411.25;4952928;28;19978;-61
2021/10/22 08:37:30;;;;;;;;;;;;;;;14.18;78.21;101403.78;4950905;28;19933;-61
2021/10/22 08:39:57;;;;;;;;;;;;;;;14.21;77.91;101411.53;4954396;28;19970;-59
2021/10/22 08:42:24;;;;;;;;;;;;;;;14.21;78.19;101404.47;4955532;28;20022;-60
2021/10/22 08:44:51;;;;;;;;;;;;;;;14.25;77.72;101402.47;4953695;28;19930;-61
2021/10/22 08:47:22;;;;;;;;;;;;;;;14.34;77.63;101395.78;4954972;28;20445;-60
2021/10/22 08:49:49;;;;;;;;;;;;;;;14.36;77.78;101400.03;4950457;28;20306;-59
2021/10/22 08:52:16;;;;;;;;;;;;;;;14.35;77.43;101398.31;4950625;28;20001;-61
2021/10/22 08:54:43;;;;;;;;;;;;;;;14.34;77.69;101398.44;4956768;28;19934;-60
2021/10/22 08:57:13;;;;;;;;;;;;;;;14.37;77.64;101401.72;4952478;28;19930;-60
2021/10/22 08:59:40;;;;;;;;;;;;;;;14.41;77.57;101404.16;4959523;28;20539;-59
2021/10/22 09:02:21;;;;;;;;;;;;;;;14.43;77.59;101410.22;4953225;28;19985;-59
2021/10/22 09:04:49;;;;;;;;;;;;;;;14.46;77.74;101416.16;4962225;28;19927;-59
2021/10/22 09:07:17;;;;;;;;;;;;;;;14.48;77.57;101419.53;4953570;28;19930;-60
2021/10/22 09:09:47;;;;;;;;;;;;;;;14.57;77.29;101419.91;4955630;28;19978;-60
2021/10/22 09:12:13;;;;;;;;;;;;;;;14.62;77.35;101413.38;4954569;28;19962;-60
2021/10/22 09:14:59;;;;;;;;;;;;;;;14.62;77.18;101425.75;4950577;28;19954;-60
2021/10/22 09:17:35;;;;;;;;;;;;;;;14.57;77.34;101418.09;4951075;28;19931;-60
2021/10/22 09:20:02;;;;;;;;;;;;;;;14.57;77.51;101425.19;4952669;28;19933;-60
2021/10/22 09:22:32;;;;;;;;;;;;;;;14.59;77.55;101420.66;4958122;28;19930;-60
2021/10/22 09:25:01;;;;;;;;;;;;;;;14.60;77.76;101422.34;4953191;28;20374;-59
2021/10/22 09:27:35;;;;;;;;;;;;;;;14.58;77.37;101425.09;4962826;28;20001;-59
2021/10/22 09:30:04;;;;;;;;;;;;;;;14.61;77.40;101421.41;4952289;28;20025;-60
2021/10/22 09:32:31;;;;;;;;;;;;;;;14.61;77.48;101418.78;4955543;28;19927;-60
2021/10/22 09:35:05;;;;;;;;;;;;;;;14.60;77.61;101422.34;4965975;28;19933;-60
2021/10/22 09:37:37;;;;;;;;;;;;;;;14.57;77.77;101417.28;4965092;28;19930;-59
2021/10/22 09:40:05;;;;;;;;;;;;;;;14.54;77.32;101413.88;4964518;28;20338;-59
2021/10/22 09:42:33;;;;;;;;;;;;;;;14.53;77.50;101414.81;4960157;28;19984;-60
2021/10/22 09:44:59;;;;;;;;;;;;;;;14.54;77.63;101411.22;4956262;28;19927;-60
2021/10/22 09:47:29;;;;;;;;;;;;;;;14.57;77.75;101409.34;4961820;28;20400;-60
2021/10/22 09:50:07;;;;;;;;;;;;;;;14.60;77.37;101425.00;4956467;28;19976;-59
2021/10/22 09:52:33;;;;;;;;;;;;;;;14.62;77.78;101421.31;4955781;28;19930;-60
2021/10/22 09:55:12;;;;;;;;;;;;;;;14.63;77.39;101419.53;4958569;28;19926;-60
2021/10/22 09:57:39;;;;;;;;;;;;;;;14.64;77.43;101418.56;4957396;28;19943;-59
2021/10/22 10:00:08;;;;;;;;;;;;;;;14.65;77.28;101418.53;4958223;28;19941;-59
2021/10/22 10:02:36;;;;;;;;;;;;;;;14.66;77.42;101429.94;4958241;28;19998;-60
2021/10/22 10:05:07;;;;;;;;;;;;;;;14.67;77.67;101426.34;4955599;28;19934;-60
2021/10/22 10:07:36;;;;;;;;;;;;;;;14.68;77.24;101428.88;4954179;28;19931;-60
2021/10/22 10:10:04;;;;;;;;;;;;;;;14.75;77.12;101425.84;4958429;28;20000;-60
2021/10/22 10:12:31;;;;;;;;;;;;;;;14.75;77.35;101424.06;4958234;28;19933;-60
2021/10/22 10:14:58;;;;;;;;;;;;;;;14.76;76.99;101427.56;4963818;28;19981;-60
2021/10/22 10:17:25;;;;;;;;;;;;;;;14.80;76.96;101431.69;4959284;28;19978;-60
2021/10/22 10:19:53;;;;;;;;;;;;;;;14.84;76.80;101425.25;4955695;28;19929;-61
2021/10/22 10:22:26;;;;;;;;;;;;;;;14.89;76.82;101424.97;4967886;28;19926;-60
2021/10/22 10:24:57;;;;;;;;;;;;;;;14.93;76.77;101413.25;4954450;28;20375;-60
2021/10/22 10:27:25;;;;;;;;;;;;;;;14.97;76.85;101417.38;4962526;28;19930;-60
2021/10/22 10:29:55;;;;;;;;;;;;;;;15.02;76.55;101415.31;4963963;28;20020;-60
2021/10/22 10:32:23;;;;;;;;;;;;;;;15.06;76.53;101410.66;4956982;28;19930;-61
2021/10/22 10:34:50;;;;;;;;;;;;;;;15.07;76.27;101409.72;4970858;28;19973;-60
2021/10/22 10:37:49;;;;;;;;;;;;;;;15.20;76.12;101413.28;4971676;28;19926;-60
2021/10/22 10:40:22;;;;;;;;;;;;;;;15.47;74.83;101404.47;4961704;28;19981;-60
2021/10/22 10:42:59;;;;;;;;;;;;;;;15.71;74.19;101394.03;4959181;28;19953;-60
2021/10/22 10:45:25;;;;;;;;;;;;;;;15.93;73.55;101392.56;4957930;28;19931;-60
2021/10/22 10:47:52;;;;;;;;;;;;;;;16.08;73.27;101395.97;4970601;28;19948;-60
2021/10/22 10:50:20;;;;;;;;;;;;;;;16.08;73.05;101394.16;4970139;28;20291;-59
2021/10/22 10:52:51;;;;;;;;;;;;;;;16.10;72.81;101392.25;4964063;28;19926;-60
2021/10/22 10:55:27;;;;;;;;;;;;;;;16.10;72.75;101389.63;4955180;28;19926;-60
2021/10/22 10:57:55;;;;;;;;;;;;;;;16.04;72.91;101389.19;4955255;28;19942;-60
2021/10/22 11:00:23;;;;;;;;;;;;;;;15.94;73.33;101387.16;4955758;28;19966;-60
2021/10/22 11:03:02;;;;;;;;;;;;;;;15.95;73.45;101382.75;4960030;28;20000;-60
2021/10/22 11:05:48;;;;;;;;;;;;;;;15.94;73.44;101387.16;4956585;28;19930;-60
2021/10/22 11:08:15;;;;;;;;;;;;;;;15.93;73.55;101388.13;4957704;28;19981;-60
2021/10/22 11:11:11;;;;;;;;;;;;;;;15.92;73.51;101393.53;4958045;28;20478;-59
2021/10/22 11:13:51;;;;;;;;;;;;;;;15.97;73.43;101380.81;4960997;28;19973;-60
2021/10/22 11:16:23;;;;;;;;;;;;;;;16.07;72.72;101383.69;4955827;28;19930;-60
2021/10/22 11:18:58;;;;;;;;;;;;;;;16.14;72.66;101369.91;4959615;28;19953;-60
2021/10/22 11:21:25;;;;;;;;;;;;;;;16.17;72.48;101374.13;4958673;28;19930;-60
2021/10/22 11:23:52;;;;;;;;;;;;;;;16.35;71.81;101369.34;4961429;28;19984;-61
2021/10/22 11:26:19;;;;;;;;;;;;;;;16.45;71.65;101364.22;4963128;28;19926;-61
2021/10/22 11:28:56;;;;;;;;;;;;;;;16.41;71.76;101360.13;4952777;28;19961;-60
2021/10/22 11:31:40;;;;;;;;;;;;;;;16.92;69.88;101353.81;4962273;28;19930;-60
2021/10/22 11:34:27;;;;;;;;;;;;;;;17.51;67.99;101349.44;4966352;28;19926;-61
2021/10/22 11:37:05;;;;;;;;;;;;;;;17.13;69.28;101351.38;4967437;28;19958;-61
2021/10/22 11:39:34;;;;;;;;;;;;;;;16.93;69.80;101356.34;4971021;28;19930;-60
2021/10/22 11:42:07;;;;;;;;;;;;;;;16.89;70.20;101357.50;4971241;28;19978;-60
2021/10/22 11:44:35;;;;;;;;;;;;;;;16.96;69.93;101353.47;4966124;28;19934;-59
2021/10/22 11:47:02;;;;;;;;;;;;;;;17.02;69.39;101349.53;4959449;28;20521;-59
2021/10/22 11:49:29;;;;;;;;;;;;;;;17.07;69.07;101344.72;4962159;28;19961;-59
2021/10/22 11:51:57;;;;;;;;;;;;;;;17.36;68.53;101348.81;4966857;28;19981;-58
2021/10/22 11:54:31;;;;;;;;;;;;;;;17.26;68.23;101359.25;4970370;28;19930;-60
2021/10/22 11:56:59;;;;;;;;;;;;;;;17.25;68.44;101352.25;4957717;28;19981;-59
2021/10/22 11:59:25;;;;;;;;;;;;;;;17.97;66.42;101348.56;4968223;28;19973;-59
2021/10/22 12:01:52;;;;;;;;;;;;;;;18.67;64.08;101335.91;4964688;28;19985;-59
2021/10/22 12:04:26;;;;;;;;;;;;;;;19.00;63.11;101331.47;4951170;28;20021;-60
2021/10/22 12:07:00;;;;;;;;;;;;;;;18.95;63.22;101330.16;4966083;28;19926;-59
2021/10/22 12:09:29;;;;;;;;;;;;;;;18.16;65.71;101333.84;4962108;28;19933;-59
2021/10/22 12:11:59;;;;;;;;;;;;;;;17.76;66.53;101332.47;4970670;28;19942;-60
2021/10/22 12:14:33;;;;;;;;;;;;;;;17.72;67.08;101333.66;4970567;28;19968;-60
2021/10/22 12:17:01;;;;;;;;;;;;;;;18.00;65.91;101329.72;4970693;28;19926;-59
2021/10/22 12:19:28;;;;;;;;;;;;;;;18.82;63.48;101320.50;4970584;28;19934;-60
2021/10/22 12:21:54;;;;;;;;;;;;;;;19.21;61.89;101320.84;4969925;28;19926;-60
2021/10/22 12:24:22;;;;;;;;;;;;;;;19.01;62.76;101321.69;4950754;28;19933;-60
2021/10/22 12:26:48;;;;;;;;;;;;;;;19.31;61.54;101320.06;4958295;28;19931;-59
2021/10/22 12:29:15;;;;;;;;;;;;;;;19.24;61.82;101315.25;4957495;28;19989;-60
2021/10/22 12:31:51;;;;;;;;;;;;;;;19.09;62.34;101309.41;4960770;28;19926;-60
2021/10/22 12:34:30;;;;;;;;;;;;;;;19.32;61.65;101309.28;4960267;28;19986;-61
2021/10/22 12:37:08;;;;;;;;;;;;;;;19.90;59.69;101299.94;4960712;28;20767;-60
2021/10/22 12:39:40;;;;;;;;;;;;;;;19.70;60.14;101306.97;4958284;28;19973;-62
2021/10/22 12:42:20;;;;;;;;;;;;;;;19.87;59.92;101301.06;4953310;28;19981;-61
2021/10/22 12:44:46;;;;;;;;;;;;;;;20.22;59.01;101298.94;4950406;28;19967;-59
2021/10/22 12:47:13;;;;;;;;;;;;;;;20.56;58.03;101294.06;4950910;28;20001;-62